Flight Track Log - Related Links

Times and Time Zones

All times are in EDT time to prevent confusion due to time zone crossing. See the ASQ5489 flight status page for this flight to view local times or setup timezone preferences in your user account.

Time Position Orientation Groundspeed Altitude Reporting Facility
EDT Latitude Longitude Course Direction KTS MPH feet Rate Location/Type
Wed 01:49:26 PM 33.6333 -84.4833 270° West 171 197 2,500  Level Atlanta TRACON
Wed 01:50:32 PM 33.6333 -84.5667 270° West 249 287 5,500 2,905 Climbing Atlanta TRACON
Wed 01:51:32 PM 33.6333 -84.6500 221° Southwest 252 290 8,600 2,739 Climbing Atlanta TRACON
Wed 01:52:04 PM 33.6025 -84.6822 190° South 271 312 9,700 913 Climbing Atlanta Center
Wed 01:53:04 PM 33.5253 -84.6992 174° South 308 354 10,000 150 Climbing Atlanta Center
Wed 01:54:04 PM 33.4189 -84.6858 142° Southeast 348 400 10,000 350 Level Atlanta Center
Wed 01:55:04 PM 33.3317 -84.6033 134° Southeast 379 436 10,700 1,500 Climbing Atlanta Center
Wed 01:56:04 PM 33.2569 -84.5108 133° Southeast 384 442 13,000 1,550 Climbing Atlanta Center
Wed 01:57:04 PM 33.1822 -84.4136 133° Southeast 396 456 13,800 1,050 Climbing Atlanta Center
Wed 01:58:04 PM 33.1008 -84.3092 133° Southeast 418 481 15,100 1,289 Climbing Atlanta Center
Wed 01:59:05 PM 33.0197 -84.2047 153° Southeast 423 487 16,400 1,550 Climbing Atlanta Center
Wed 02:00:04 PM 32.9156 -84.1403 160° South 415 478 18,200 5,256 Climbing Atlanta Center
Wed 02:01:06 PM 32.8069 -84.0931 163° South 410 472 27,000 1,388 Climbing Atlanta Center
Wed 02:02:05 PM 32.6964 -84.0536 160° South 410 472 21,000 -2,542 Descending Atlanta Center
Wed 02:03:04 PM 32.5856 -84.0067 161° South 410 472 22,000 1,008 Climbing Atlanta Center
Wed 02:04:04 PM 32.4731 -83.9600 161° South 420 483 23,000 1,000 Climbing Atlanta Center
Wed 02:05:04 PM 32.3581 -83.9133 161° South 433 498 24,000 741 Climbing Atlanta Center
Wed 02:06:46 PM 32.1483 -83.8275 161° South 435 501 25,000 370 Climbing Jacksonville Center
Wed 02:07:46 PM 32.0256 -83.7772 161° South 453 521 25,000  Level Jacksonville Center
Wed 02:08:46 PM 31.9050 -83.7272 161° South 463 533 25,000  Level Jacksonville Center
Wed 02:09:46 PM 31.7903 -83.6819 163° South 463 533 25,000  Level Jacksonville Center
Wed 02:10:46 PM 31.6653 -83.6369 159° South 468 539 25,000  Level Jacksonville Center
Wed 02:11:46 PM 31.5361 -83.5800 161° South 478 550 25,000  Level Jacksonville Center
Wed 02:12:46 PM 31.4133 -83.5303 161° South 478 550 25,000  Level Jacksonville Center
Wed 02:13:46 PM 31.2883 -83.4808 148° Southeast 478 550 25,000 -100 Level Jacksonville Center
Wed 02:14:46 PM 31.1758 -83.4000 147° Southeast 478 550 24,800 -400 Descending Jacksonville Center
Wed 02:15:46 PM 31.0614 -83.3122 138° Southeast 478 550 24,200 -400 Descending Jacksonville Center
Wed 02:16:46 PM 30.9594 -83.2050 131° Southeast 489 563 24,000 -100 Descending Jacksonville Center
Wed 02:17:46 PM 30.8719 -83.0886 131° Southeast 489 563 24,000  Level Jacksonville Center
Wed 02:18:46 PM 30.7864 -82.9747 133° Southeast 476 548 24,000  Level Jacksonville Center
Wed 02:19:46 PM 30.6944 -82.8611 150° Southeast 476 548 24,000 -50 Level Jacksonville Center
Wed 02:20:46 PM 30.5672 -82.7767 152° Southeast 476 548 23,900 -100 Descending Jacksonville Center
Wed 02:21:46 PM 30.4753 -82.7192 154° Southeast 455 524 23,800 -1,350 Descending Jacksonville Center
Wed 02:22:46 PM 30.3750 -82.6614 156° South 420 483 21,200 -3,050 Descending Jacksonville Center
Wed 02:23:46 PM 30.2642 -82.6039 152° Southeast 408 470 17,700 -3,300 Descending Jacksonville Center
Wed 02:24:46 PM 30.1658 -82.5442 155° Southeast 394 453 14,600 -3,000 Descending Jacksonville Center
Wed 02:25:34 PM 30.0864 -82.5014 152° Southeast 382 440 12,300 -2,100 Descending Jacksonville Center
Wed 02:26:46 PM 29.9986 -82.4464 152° Southeast 365 420 10,400 -1,682 Descending Jacksonville Center
Wed 02:27:46 PM 29.9253 -82.4014 125° Southeast 327 376 8,600 -1,900 Descending Jacksonville Center
Wed 02:28:46 PM 29.8747 -82.3178 126° Southeast 291 335 6,600 -1,450 Descending Jacksonville Center
Wed 02:29:46 PM 29.8328 -82.2508 122° Southeast 279 321 5,700 -900 Descending Jacksonville Center
Wed 02:30:46 PM 29.7989 -82.1889 132° Southeast 256 295 4,800 -1,000 Descending Jacksonville Center
Wed 02:31:46 PM 29.7653 -82.1461 186° South 216 249 3,700 -950 Descending Jacksonville Center
Wed 02:32:46 PM 29.7236 -82.1511 186° South 176 203 2,900 -800 Descending Jacksonville Center

Login

Don't have an account? Register now (free) for customized features, flight alerts, and more!